Saint Louis, Missouri
Traffic Map
Current Weather Conditions
Saint Louis, Missouri
Clear
Clear
10°
Feels Like: 10°
Wind Chill: 10° Ceiling: Unl
Heat Index: 10° Visibility: 10mi
Dew Point: Wind: 12mph
Humidity: 50% Direction: 290° (WNW)
Pressure: 29.69in Gusts: 0mph
Raw Report DataKCPS 242353Z 29010KT 10SM CLR 10/00 A2969 RMK AO2 PK WND 29028/2320 SLP053 T01000000 10144 20100 53022
Traffic Incident Summary
Active as of:
Severity:
Category:
InformationThere was an issue retrieving the traffic information for this location. Please try a different location or try again shortly.
Advertisements
Track Severe Weather on mobile